Time;durP1;ratioP1;P1;durP2;ratioP2;P2;SDS_P1;SDS_P2;PMS_P1;PMS_P2;Temp;Humidity;BMP_temperature;BMP_pressure;BME280_temperature;BME280_humidity;BME280_pressure;Samples;Min_cycle;Max_cycle;Signal;HPM_P1;HPM_P2
2022/02/28 00:02:13;;;;;;;4.80;2.42;;;;;;;-3.41;63.49;101620.84;5061166;28;20059;-66
2022/02/28 00:04:38;;;;;;;4.95;2.60;;;;;;;-3.43;63.96;101619.97;5053960;28;20029;-64
2022/02/28 00:07:04;;;;;;;4.05;2.38;;;;;;;-3.42;63.56;101630.44;5071340;28;20456;-64
2022/02/28 00:09:29;;;;;;;5.60;2.30;;;;;;;-3.40;63.59;101633.09;5071892;28;20035;-64
2022/02/28 00:11:55;;;;;;;3.88;2.90;;;;;;;-3.44;63.38;101631.31;5072075;28;20512;-63
2022/02/28 00:14:21;;;;;;;3.58;2.00;;;;;;;-3.48;63.76;101636.53;5071689;28;20037;-64
2022/02/28 00:16:47;;;;;;;2.95;1.95;;;;;;;-3.48;64.10;101641.78;5071863;28;20108;-63
2022/02/28 00:19:12;;;;;;;2.65;1.80;;;;;;;-3.50;63.68;101637.38;5072229;28;20462;-63
2022/02/28 00:21:38;;;;;;;3.30;2.00;;;;;;;-3.54;64.19;101643.47;5073434;28;20040;-63
2022/02/28 00:24:05;;;;;;;5.25;2.10;;;;;;;-3.59;63.86;101642.56;5055370;28;20481;-63
2022/02/28 00:26:30;;;;;;;2.40;1.70;;;;;;;-3.57;64.18;101651.31;5055700;28;20059;-63
2022/02/28 00:28:56;;;;;;;3.50;2.35;;;;;;;-3.63;64.08;101634.66;5073286;28;20107;-64
2022/02/28 00:31:21;;;;;;;3.92;1.92;;;;;;;-3.59;64.69;101650.41;5073353;28;20027;-63
2022/02/28 00:33:47;;;;;;;3.42;1.67;;;;;;;-3.61;64.59;101640.81;5073548;28;20458;-64
2022/02/28 00:36:12;;;;;;;6.60;2.33;;;;;;;-3.62;64.65;101644.28;5073667;28;20025;-63
2022/02/28 00:38:38;;;;;;;4.78;2.08;;;;;;;-3.62;64.19;101641.69;5073008;28;20048;-63
2022/02/28 00:41:04;;;;;;;5.20;1.98;;;;;;;-3.62;64.32;101652.16;5073397;28;20021;-63
2022/02/28 00:43:29;;;;;;;4.80;2.10;;;;;;;-3.79;64.32;101619.72;5073438;28;20032;-64
2022/02/28 00:45:55;;;;;;;4.00;2.20;;;;;;;-3.68;64.55;101649.47;5073000;28;20049;-63
2022/02/28 00:48:20;;;;;;;3.53;2.03;;;;;;;-3.68;64.65;101651.22;5073083;28;20500;-63
2022/02/28 00:50:46;;;;;;;4.13;2.00;;;;;;;-3.70;64.68;101647.72;5072317;28;20028;-65
2022/02/28 00:53:12;;;;;;;3.20;1.88;;;;;;;-3.71;64.44;101644.22;5054980;28;20028;-64
2022/02/28 00:55:37;;;;;;;2.80;1.90;;;;;;;-3.72;65.02;101652.91;5054588;28;20068;-63
2022/02/28 00:58:03;;;;;;;4.65;2.50;;;;;;;-3.72;64.84;101646.81;5072525;28;20048;-63
2022/02/28 01:00:29;;;;;;;4.57;2.40;;;;;;;-3.73;64.55;101650.31;5072560;28;20033;-64
2022/02/28 01:02:55;;;;;;;3.40;1.98;;;;;;;-3.78;65.00;101634.56;5072670;28;20501;-64
2022/02/28 01:05:21;;;;;;;4.95;2.10;;;;;;;-3.83;64.66;101629.28;5053702;28;20033;-63
2022/02/28 01:07:48;;;;;;;3.42;2.20;;;;;;;-3.78;64.59;101634.56;5072242;28;20465;-63
2022/02/28 01:10:15;;;;;;;6.22;2.30;;;;;;;-3.80;65.25;101642.38;5072916;28;20028;-64
2022/02/28 01:12:41;;;;;;;4.05;2.05;;;;;;;-3.80;65.29;101633.69;5054718;28;20064;-64
2022/02/28 01:15:09;;;;;;;5.43;2.20;;;;;;;-3.81;65.54;101640.63;5054025;28;20056;-63
2022/02/28 01:17:34;;;;;;;4.20;2.20;;;;;;;-3.83;64.96;101638.88;5054090;28;20029;-62
2022/02/28 01:20:00;;;;;;;3.58;2.22;;;;;;;-3.86;65.38;101642.34;5072124;28;20032;-62
2022/02/28 01:22:26;;;;;;;5.97;2.40;;;;;;;-3.96;65.28;101620.44;5072298;28;20136;-65
2022/02/28 01:24:52;;;;;;;5.80;2.60;;;;;;;-3.92;65.50;101630.06;5053814;28;20494;-63
2022/02/28 01:27:19;;;;;;;4.90;2.13;;;;;;;-3.83;65.53;101631.91;5071947;28;20033;-66
2022/02/28 01:29:45;;;;;;;4.18;2.17;;;;;;;-3.89;65.25;101618.75;5072229;28;20126;-64
2022/02/28 01:32:10;;;;;;;3.83;2.15;;;;;;;-3.90;65.44;101620.50;5072079;28;20393;-63
2022/02/28 01:34:36;;;;;;;4.55;2.30;;;;;;;-3.93;65.25;101617.00;5071667;28;20089;-65
2022/02/28 01:37:03;;;;;;;4.88;1.92;;;;;;;-3.93;65.36;101615.25;5071631;28;20370;-64
2022/02/28 01:39:29;;;;;;;4.40;2.28;;;;;;;-3.90;65.24;101619.63;5070613;28;20429;-63
2022/02/28 01:41:54;;;;;;;4.75;2.38;;;;;;;-3.94;65.18;101605.63;5071457;28;20031;-64
2022/02/28 01:44:20;;;;;;;4.47;2.58;;;;;;;-3.94;65.10;101610.88;5053638;28;20098;-64
2022/02/28 01:46:45;;;;;;;4.68;2.20;;;;;;;-3.95;65.27;101613.50;5053592;28;20032;-63
2022/02/28 01:49:11;;;;;;;5.40;2.50;;;;;;;-4.20;65.56;101572.28;5071346;28;20025;-62
2022/02/28 01:51:38;;;;;;;5.72;3.00;;;;;;;-3.98;66.30;101603.88;5070599;28;20539;-62
2022/02/28 01:54:04;;;;;;;6.50;2.53;;;;;;;-3.95;65.74;101614.34;5053571;28;20032;-65
2022/02/28 01:56:30;;;;;;;8.57;2.67;;;;;;;-3.99;65.93;101609.97;5071520;28;20411;-62
2022/02/28 01:58:56;;;;;;;6.07;2.60;;;;;;;-3.96;66.29;101616.97;5054089;28;20042;-66
2022/02/28 02:01:22;;;;;;;8.98;3.22;;;;;;;-4.00;66.30;101608.22;5071275;28;20457;-65
2022/02/28 02:03:47;;;;;;;9.13;3.30;;;;;;;-4.08;65.95;101591.59;5071150;28;20154;-65
2022/02/28 02:06:13;;;;;;;6.25;2.47;;;;;;;-4.19;66.08;101576.66;5053542;28;20544;-67
2022/02/28 02:08:39;;;;;;;5.05;2.75;;;;;;;-3.97;65.87;101616.09;5071192;28;20235;-65
2022/02/28 02:11:05;;;;;;;4.97;2.72;;;;;;;-4.10;65.84;101594.16;5070783;28;20039;-65
2022/02/28 02:13:32;;;;;;;10.27;2.97;;;;;;;-3.97;65.94;101615.22;5071125;28;20153;-66
2022/02/28 02:15:59;;;;;;;6.93;3.10;;;;;;;-4.29;66.02;101566.97;5070153;28;20029;-66
2022/02/28 02:18:26;;;;;;;6.20;3.05;;;;;;;-4.00;66.32;101618.69;5071055;28;20074;-65
2022/02/28 02:20:51;;;;;;;6.20;2.90;;;;;;;-4.00;66.17;101620.41;5071613;28;20039;-63
2022/02/28 02:23:17;;;;;;;8.93;3.13;;;;;;;-4.07;65.82;101615.13;5071244;28;20044;-64
2022/02/28 02:25:44;;;;;;;8.90;3.28;;;;;;;-4.04;66.55;101624.75;5070882;28;20047;-64
2022/02/28 02:28:12;;;;;;;10.07;3.17;;;;;;;-3.97;66.21;101628.31;5053159;28;20432;-66
2022/02/28 02:30:38;;;;;;;7.10;3.28;;;;;;;-4.29;66.05;101573.94;5071097;28;20028;-65
2022/02/28 02:33:04;;;;;;;9.35;3.55;;;;;;;-4.21;66.11;101580.13;5070583;28;20522;-66
2022/02/28 02:35:30;;;;;;;9.65;3.53;;;;;;;-4.05;66.38;101615.16;5070718;28;20025;-66
2022/02/28 02:37:55;;;;;;;8.95;3.08;;;;;;;-4.05;66.29;101613.38;5053374;28;20029;-66
2022/02/28 02:40:21;;;;;;;10.55;3.83;;;;;;;-4.05;66.28;101615.16;5071109;28;20060;-67
2022/02/28 02:42:47;;;;;;;8.40;3.33;;;;;;;-4.06;66.16;101627.34;5070350;28;20462;-67
2022/02/28 02:45:12;;;;;;;7.97;3.60;;;;;;;-4.10;66.17;101620.34;5070996;28;20198;-66
2022/02/28 02:47:38;;;;;;;7.30;3.80;;;;;;;-4.13;66.71;101619.41;5071095;28;20119;-66
2022/02/28 02:50:05;;;;;;;7.45;3.55;;;;;;;-4.11;66.40;101612.44;5052590;28;20035;-65
2022/02/28 02:52:31;;;;;;;5.40;3.38;;;;;;;-4.11;66.87;101620.31;5070276;28;20024;-65
2022/02/28 02:54:56;;;;;;;5.97;3.35;;;;;;;-4.38;66.73;101574.72;5070899;28;20056;-65
2022/02/28 02:57:22;;;;;;;7.65;3.80;;;;;;;-4.12;66.84;101627.28;5071273;28;20040;-66
2022/02/28 02:59:49;;;;;;;5.22;3.15;;;;;;;-4.11;67.03;101622.91;5070614;28;20466;-65
2022/02/28 03:02:15;;;;;;;8.95;3.88;;;;;;;-4.08;66.43;101622.97;5070433;28;20177;-62
2022/02/28 03:04:41;;;;;;;8.18;3.58;;;;;;;-4.11;66.46;101625.53;5070701;28;20130;-65
2022/02/28 03:07:18;;;;;;;9.02;3.35;;;;;;;-4.06;66.45;101629.09;5071027;28;20056;-65
2022/02/28 03:09:44;;;;;;;6.22;3.30;;;;;;;-4.27;66.74;101594.03;5070474;28;20024;-66
2022/02/28 03:12:10;;;;;;;8.75;3.47;;;;;;;-4.15;66.75;101623.75;5070160;28;20040;-67
2022/02/28 03:14:35;;;;;;;5.80;2.97;;;;;;;-4.18;66.46;101607.19;5070748;28;20037;-66
2022/02/28 03:17:01;;;;;;;5.57;3.17;;;;;;;-4.12;66.79;101621.16;5070688;28;20031;-66
2022/02/28 03:19:26;;;;;;;6.05;3.42;;;;;;;-4.13;67.10;101619.41;5070364;28;20367;-67
2022/02/28 03:21:52;;;;;;;6.85;3.47;;;;;;;-4.14;67.04;101626.41;5070260;28;20071;-65
2022/02/28 03:24:17;;;;;;;5.30;3.17;;;;;;;-4.14;66.37;101620.28;5070554;28;20134;-67
2022/02/28 03:26:43;;;;;;;4.72;3.00;;;;;;;-4.18;66.64;101622.88;5070600;28;20029;-64
2022/02/28 03:29:08;;;;;;;8.63;3.80;;;;;;;-4.22;67.07;101620.19;5073731;28;20047;-65
2022/02/28 03:31:34;;;;;;;5.25;3.03;;;;;;;-4.18;66.60;101625.50;5073911;28;20111;-66
2022/02/28 03:33:59;;;;;;;6.30;3.20;;;;;;;-4.19;67.11;101638.56;5056007;28;20415;-66
2022/02/28 03:36:25;;;;;;;5.30;3.20;;;;;;;-4.19;67.17;101634.19;5074451;28;20039;-63
2022/02/28 03:38:51;;;;;;;6.68;3.63;;;;;;;-4.19;66.95;101641.19;5074275;28;20036;-66
2022/02/28 03:41:16;;;;;;;6.72;3.63;;;;;;;-4.19;67.12;101642.03;5073699;28;20064;-66
2022/02/28 03:43:42;;;;;;;5.10;3.30;;;;;;;-4.18;66.66;101642.94;5073692;28;20113;-66
2022/02/28 03:46:07;;;;;;;6.38;3.03;;;;;;;-4.25;67.03;101633.25;5073421;28;20043;-66
2022/02/28 03:48:33;;;;;;;5.97;2.97;;;;;;;-4.21;66.53;101643.78;5073879;28;20060;-65
2022/02/28 03:50:58;;;;;;;6.70;3.08;;;;;;;-4.24;66.62;101650.69;5073583;28;20032;-65
2022/02/28 03:53:24;;;;;;;4.57;2.92;;;;;;;-4.22;66.74;101649.88;5073785;28;20139;-67
2022/02/28 03:55:49;;;;;;;6.47;2.90;;;;;;;-4.24;67.20;101643.75;5073808;28;20085;-66
2022/02/28 03:58:14;;;;;;;4.35;3.00;;;;;;;-4.21;67.10;101648.16;5073294;28;20082;-66
2022/02/28 04:00:40;;;;;;;8.25;3.45;;;;;;;-4.26;67.18;101645.47;5071440;28;20522;-66
2022/02/28 04:03:05;;;;;;;4.45;2.58;;;;;;;-4.24;66.94;101654.22;5070685;28;20058;-63
2022/02/28 04:05:31;;;;;;;4.85;2.75;;;;;;;-4.28;66.85;101656.75;5071297;28;20028;-65
2022/02/28 04:07:56;;;;;;;5.20;2.90;;;;;;;-4.30;66.71;101648.91;5071370;28;20028;-63
2022/02/28 04:10:22;;;;;;;4.70;2.58;;;;;;;-4.25;67.24;101648.94;5071638;28;20146;-65
2022/02/28 04:12:47;;;;;;;5.10;3.08;;;;;;;-4.24;67.10;101650.69;5071145;28;20091;-65
2022/02/28 04:15:13;;;;;;;5.38;2.90;;;;;;;-4.34;66.45;101636.66;5053379;28;20028;-64
2022/02/28 04:17:38;;;;;;;7.93;3.30;;;;;;;-4.22;67.13;101652.47;5071261;28;20437;-66
2022/02/28 04:20:05;;;;;;;5.85;3.00;;;;;;;-4.27;66.84;101648.94;5072300;28;20090;-68
2022/02/28 04:22:30;;;;;;;8.00;3.38;;;;;;;-4.22;66.86;101662.06;5073023;28;20048;-66
2022/02/28 04:24:56;;;;;;;5.65;3.10;;;;;;;-4.18;66.66;101669.09;5055735;28;20106;-66
2022/02/28 04:27:22;;;;;;;4.03;2.67;;;;;;;-4.15;66.35;101663.00;5055162;28;20112;-65
2022/02/28 04:29:48;;;;;;;8.15;3.13;;;;;;;-4.15;66.49;101669.13;5073053;28;20028;-64
2022/02/28 04:32:14;;;;;;;5.35;3.25;;;;;;;-4.15;66.70;101668.22;5073158;28;20120;-65
2022/02/28 04:34:40;;;;;;;6.72;3.20;;;;;;;-4.10;66.41;101666.53;5072869;28;20028;-67
2022/02/28 04:37:06;;;;;;;6.97;3.33;;;;;;;-3.99;66.45;101677.09;5072592;28;20050;-66
2022/02/28 04:39:32;;;;;;;5.78;2.85;;;;;;;-3.93;66.42;101670.19;5071630;28;20025;-64
2022/02/28 04:41:58;;;;;;;5.53;3.45;;;;;;;-3.86;66.29;101680.72;5073249;28;20032;-58
2022/02/28 04:44:23;;;;;;;7.80;3.47;;;;;;;-3.79;65.78;101674.69;5073155;28;20024;-66
2022/02/28 04:46:49;;;;;;;11.07;3.72;;;;;;;-3.79;65.96;101661.59;5072627;28;20086;-67
2022/02/28 04:49:15;;;;;;;8.48;3.20;;;;;;;-3.67;65.45;101666.06;5072603;28;20181;-66
2022/02/28 04:51:40;;;;;;;7.65;3.30;;;;;;;-3.61;65.38;101666.09;5055112;28;20386;-66
2022/02/28 04:54:05;;;;;;;5.90;3.38;;;;;;;-3.42;64.99;101681.97;5072863;28;20024;-65
2022/02/28 04:56:31;;;;;;;6.88;3.15;;;;;;;-3.32;64.29;101682.03;5054376;28;20036;-67
2022/02/28 04:58:56;;;;;;;5.57;3.70;;;;;;;-3.25;64.68;101679.44;5072641;28;20024;-66
2022/02/28 05:01:23;;;;;;;7.60;3.53;;;;;;;-2.66;64.25;101675.41;5072653;28;20028;-67
2022/02/28 05:03:48;;;;;;;10.23;3.85;;;;;;;-1.17;61.04;101677.31;5072249;28;20024;-66
2022/02/28 05:06:14;;;;;;;8.93;3.78;;;;;;;0.58;55.41;101670.19;5072113;28;20028;-68
2022/02/28 05:08:39;;;;;;;9.07;3.67;;;;;;;1.58;50.78;101665.53;5054479;28;20431;-67
2022/02/28 05:11:05;;;;;;;7.68;3.08;;;;;;;1.93;49.68;101655.38;5072423;28;20074;-67
2022/02/28 05:13:31;;;;;;;7.80;3.60;;;;;;;2.47;48.37;101666.00;5072389;28;20458;-65
2022/02/28 05:15:57;;;;;;;6.97;3.45;;;;;;;2.63;47.08;101611.91;5072220;28;20458;-67
2022/02/28 05:18:23;;;;;;;5.88;3.70;;;;;;;3.39;45.80;101660.72;5071855;28;20032;-66
2022/02/28 05:20:48;;;;;;;6.80;3.33;;;;;;;3.74;44.54;101668.78;5072286;28;20546;-65
2022/02/28 05:23:13;;;;;;;5.85;3.42;;;;;;;4.19;44.13;101664.25;5072113;28;20430;-66
2022/02/28 05:25:39;;;;;;;6.03;3.35;;;;;;;5.30;41.60;101647.16;5071764;28;20093;-66
2022/02/28 05:28:05;;;;;;;5.22;3.40;;;;;;;6.77;39.04;101665.56;5071364;28;20490;-66
2022/02/28 05:30:30;;;;;;;7.50;3.60;;;;;;;8.07;36.30;101667.81;5072271;28;20028;-64
2022/02/28 05:32:56;;;;;;;7.82;3.78;;;;;;;9.22;34.26;101667.44;5071800;28;20032;-67
2022/02/28 05:35:21;;;;;;;7.43;3.38;;;;;;;10.25;32.28;101658.13;5053753;28;20432;-64
2022/02/28 05:37:47;;;;;;;10.63;3.70;;;;;;;11.19;30.40;101665.84;5070804;28;20040;-68
2022/02/28 05:40:12;;;;;;;6.38;3.17;;;;;;;11.74;28.90;101637.81;5051822;28;20033;-67
2022/02/28 05:42:38;;;;;;;8.38;3.55;;;;;;;12.55;28.14;101667.25;5070248;28;20032;-66
2022/02/28 05:45:05;;;;;;;7.07;3.35;;;;;;;13.12;27.25;101665.63;5070163;28;20029;-67
2022/02/28 05:47:31;;;;;;;6.93;3.85;;;;;;;13.86;25.85;101669.03;5070164;28;20032;-65
2022/02/28 05:49:57;;;;;;;7.05;3.40;;;;;;;14.40;24.98;101675.38;5070654;28;20029;-66
2022/02/28 05:52:23;;;;;;;7.35;3.63;;;;;;;15.15;23.95;101678.44;5069849;28;20027;-66
2022/02/28 05:54:49;;;;;;;7.50;3.80;;;;;;;15.80;23.24;101673.78;5069912;28;20393;-66
2022/02/28 05:57:14;;;;;;;13.82;3.80;;;;;;;16.27;22.13;101663.16;5070897;28;20032;-67
2022/02/28 05:59:40;;;;;;;7.38;3.67;;;;;;;16.59;21.20;101642.75;5070990;28;20029;-67
2022/02/28 06:02:05;;;;;;;7.45;3.95;;;;;;;16.67;20.98;101637.63;5070959;28;20036;-67
2022/02/28 06:04:31;;;;;;;12.32;3.60;;;;;;;17.63;20.38;101661.69;5071756;28;20028;-67
2022/02/28 06:06:57;;;;;;;12.68;4.25;;;;;;;18.38;19.47;101672.72;5049303;28;20028;-64
2022/02/28 06:09:22;;;;;;;8.80;4.03;;;;;;;18.82;18.68;101669.91;5071002;28;20039;-65
2022/02/28 06:11:49;;;;;;;9.63;4.32;;;;;;;19.19;18.32;101668.56;5069848;28;20044;-65
2022/02/28 06:14:15;;;;;;;13.02;4.38;;;;;;;19.34;18.04;101678.09;5069336;28;20469;-66
2022/02/28 06:16:41;;;;;;;14.05;4.55;;;;;;;19.86;17.72;101665.38;5068409;28;20037;-65
2022/02/28 06:19:06;;;;;;;12.15;5.35;;;;;;;20.57;17.06;101658.00;5059270;28;20106;-67
2022/02/28 06:21:32;;;;;;;12.85;4.40;;;;;;;21.15;16.00;101658.91;5050844;28;20560;-67
2022/02/28 06:23:57;;;;;;;14.35;4.35;;;;;;;21.57;15.64;101655.72;5048636;28;20479;-66
2022/02/28 06:26:23;;;;;;;9.15;4.43;;;;;;;22.01;15.35;101659.63;5050526;28;20099;-65
2022/02/28 06:28:48;;;;;;;8.57;4.30;;;;;;;22.23;14.79;101672.81;5051171;28;20029;-65
2022/02/28 06:31:14;;;;;;;10.68;4.13;;;;;;;22.40;14.41;101664.75;5050762;28;20211;-66
2022/02/28 06:33:40;;;;;;;7.10;3.92;;;;;;;22.54;14.23;101666.09;5050696;28;20033;-67
2022/02/28 06:36:06;;;;;;;11.15;4.18;;;;;;;22.87;14.28;101666.38;5051009;28;20119;-65
2022/02/28 06:38:31;;;;;;;8.73;4.18;;;;;;;23.27;13.83;101671.41;5051001;28;20140;-65
2022/02/28 06:40:57;;;;;;;9.15;4.20;;;;;;;23.76;13.27;101677.09;5050416;28;20448;-65
2022/02/28 06:43:24;;;;;;;10.98;4.22;;;;;;;24.37;12.93;101676.91;5050546;28;20025;-66
2022/02/28 06:45:51;;;;;;;6.35;4.00;;;;;;;24.60;12.84;101656.22;5050654;28;20044;-66
2022/02/28 06:48:17;;;;;;;7.68;4.47;;;;;;;24.94;12.09;101672.44;5051169;28;20039;-65
2022/02/28 06:50:45;;;;;;;11.02;4.43;;;;;;;24.93;12.03;101675.34;5050418;28;20049;-67
2022/02/28 06:53:22;;;;;;;9.85;4.30;;;;;;;25.02;11.95;101674.31;5050584;28;20040;-65
2022/02/28 06:55:49;;;;;;;8.15;4.43;;;;;;;25.40;11.77;101684.63;5050934;28;20032;-64
2022/02/28 06:58:21;;;;;;;6.60;4.63;;;;;;;25.76;11.50;101673.22;5050977;28;20039;-67
2022/02/28 07:00:50;;;;;;;11.30;4.63;;;;;;;25.98;11.10;101676.19;5050243;28;20459;-64
2022/02/28 07:03:16;;;;;;;7.28;4.78;;;;;;;26.30;11.12;101667.94;5052555;28;20037;-64
2022/02/28 07:05:43;;;;;;;7.82;5.20;;;;;;;26.47;10.79;101664.00;5054904;28;20417;-64
2022/02/28 07:08:08;;;;;;;8.40;4.95;;;;;;;26.72;10.77;101662.94;5054614;28;20036;-66
2022/02/28 07:10:34;;;;;;;10.18;5.40;;;;;;;27.21;10.29;101659.69;5054501;28;20021;-66
2022/02/28 07:13:00;;;;;;;11.60;5.65;;;;;;;27.58;10.23;101659.78;5054368;28;20094;-66
2022/02/28 07:15:26;;;;;;;11.50;4.65;;;;;;;27.88;9.65;101648.69;5054635;28;20029;-66
2022/02/28 07:17:52;;;;;;;10.88;4.93;;;;;;;28.13;9.80;101656.56;5054679;28;20029;-66
2022/02/28 07:20:18;;;;;;;9.63;4.60;;;;;;;28.21;9.27;101648.25;5054168;28;20336;-65
2022/02/28 07:22:43;;;;;;;9.43;4.22;;;;;;;28.01;9.37;101631.47;5053701;28;20155;-65
2022/02/28 07:25:09;;;;;;;9.55;4.13;;;;;;;28.19;9.30;101643.97;5054007;28;20041;-66
2022/02/28 07:27:34;;;;;;;9.05;3.90;;;;;;;28.25;9.36;101653.34;5054558;28;20378;-66
2022/02/28 07:30:00;;;;;;;10.82;4.45;;;;;;;28.39;9.19;101655.16;5053922;28;20037;-66
2022/02/28 07:32:25;;;;;;;10.55;3.90;;;;;;;28.36;9.17;101655.56;5053701;28;20044;-65
2022/02/28 07:34:51;;;;;;;10.98;3.63;;;;;;;28.13;9.24;101666.75;5053666;28;20033;-67
2022/02/28 07:37:16;;;;;;;7.72;3.50;;;;;;;27.46;9.42;101664.03;5052536;28;20367;-65
2022/02/28 07:39:42;;;;;;;12.10;4.00;;;;;;;26.86;9.62;101655.78;5052495;28;20033;-66
2022/02/28 07:42:07;;;;;;;9.13;4.28;;;;;;;26.46;10.20;101665.03;5053522;28;20035;-66
2022/02/28 07:44:33;;;;;;;10.75;4.07;;;;;;;26.08;10.22;101659.47;5053658;28;20535;-64
2022/02/28 07:46:59;;;;;;;13.18;4.03;;;;;;;26.28;10.57;101653.50;5053654;28;20036;-63
2022/02/28 07:49:24;;;;;;;8.75;3.88;;;;;;;26.18;10.65;101657.38;5060466;28;20024;-62
2022/02/28 07:51:50;;;;;;;6.45;3.13;;;;;;;25.81;10.75;101658.97;5071093;28;20059;-63
2022/02/28 07:54:15;;;;;;;7.55;3.40;;;;;;;25.15;10.92;101651.84;5070514;28;20462;-63
2022/02/28 07:56:41;;;;;;;7.15;3.40;;;;;;;24.31;11.37;101652.94;5060602;28;20386;-62
2022/02/28 07:59:06;;;;;;;5.20;3.40;;;;;;;22.67;12.40;101657.53;5064012;28;20024;-63
2022/02/28 08:01:32;;;;;;;9.10;3.67;;;;;;;20.12;14.66;101668.44;5049485;28;20043;-63
2022/02/28 08:03:57;;;;;;;7.85;3.70;;;;;;;17.59;16.76;101665.63;5069572;28;20327;-63
2022/02/28 08:06:24;;;;;;;7.20;3.75;;;;;;;15.45;18.97;101656.50;5071805;28;20040;-63
2022/02/28 08:08:49;;;;;;;6.68;3.40;;;;;;;13.17;21.40;101674.25;5072257;28;20017;-62
2022/02/28 08:11:15;;;;;;;6.80;3.50;;;;;;;11.19;24.18;101665.84;5072458;28;20477;-62
2022/02/28 08:13:40;;;;;;;8.13;3.50;;;;;;;9.69;26.37;101671.53;5072459;28;20029;-64
2022/02/28 08:16:06;;;;;;;9.05;3.75;;;;;;;8.67;27.97;101684.97;5067416;28;20072;-64
2022/02/28 08:18:32;;;;;;;7.85;3.60;;;;;;;7.88;29.78;101679.22;5071548;28;20390;-64
2022/02/28 08:20:57;;;;;;;9.57;3.70;;;;;;;7.19;30.72;101672.03;5072018;28;20025;-64
2022/02/28 08:23:23;;;;;;;11.13;3.60;;;;;;;6.67;31.54;101662.34;5072328;28;20040;-64
2022/02/28 08:25:49;;;;;;;9.07;3.42;;;;;;;6.44;32.68;101681.75;5072050;28;20032;-64
2022/02/28 08:28:15;;;;;;;7.57;3.35;;;;;;;6.17;33.27;101687.94;5072468;28;20070;-63
2022/02/28 08:30:40;;;;;;;10.32;3.80;;;;;;;5.75;34.27;101677.69;5072294;28;20058;-63
2022/02/28 08:33:07;;;;;;;7.05;3.10;;;;;;;5.53;34.99;101670.34;5072921;28;20094;-64
2022/02/28 08:35:33;;;;;;;8.25;2.95;;;;;;;5.48;35.02;101664.31;5072834;28;20032;-67
2022/02/28 08:37:58;;;;;;;6.07;3.15;;;;;;;5.26;34.50;101642.84;5071814;28;20047;-70
2022/02/28 08:40:25;;;;;;;7.05;3.40;;;;;;;5.23;35.57;101670.34;5071818;28;20033;-68
2022/02/28 08:42:50;;;;;;;7.28;3.08;;;;;;;5.11;36.02;101671.56;5071829;28;20024;-68
2022/02/28 08:45:15;;;;;;;9.98;2.83;;;;;;;5.02;35.88;101656.75;5071802;28;20025;-66
2022/02/28 08:47:41;;;;;;;14.00;3.83;;;;;;;5.11;35.82;101676.88;5071376;28;20482;-66
2022/02/28 08:50:08;;;;;;;11.63;3.38;;;;;;;5.10;35.97;101663.66;5072022;28;20029;-65
2022/02/28 08:52:34;;;;;;;6.70;3.30;;;;;;;5.12;36.37;101667.13;5072253;28;20047;-70
2022/02/28 08:55:01;;;;;;;4.20;2.75;;;;;;;5.17;36.09;101658.09;5050919;28;20040;-71
2022/02/28 08:57:26;;;;;;;5.63;2.50;;;;;;;5.18;36.07;101661.66;5059682;28;20029;-69
2022/02/28 08:59:52;;;;;;;8.18;2.83;;;;;;;5.10;36.24;101653.91;5071580;28;20081;-68
2022/02/28 09:02:18;;;;;;;7.00;3.30;;;;;;;5.00;37.16;101655.94;5071590;28;20025;-67
2022/02/28 09:04:43;;;;;;;3.78;2.45;;;;;;;4.80;37.74;101664.44;5071291;28;20039;-68
2022/02/28 09:07:09;;;;;;;4.32;2.33;;;;;;;4.70;38.23;101654.97;5050054;28;20032;-68
2022/02/28 09:09:34;;;;;;;5.70;2.38;;;;;;;4.72;37.73;101659.34;5060183;28;20032;-66
2022/02/28 09:12:00;;;;;;;5.18;2.17;;;;;;;4.60;37.30;101638.47;5070985;28;20470;-67
2022/02/28 09:14:25;;;;;;;4.82;2.22;;;;;;;4.57;37.57;101655.31;5071035;28;20123;-65
2022/02/28 09:16:51;;;;;;;4.60;2.17;;;;;;;4.65;37.48;101668.38;5070573;28;20162;-66
2022/02/28 09:19:16;;;;;;;8.80;2.10;;;;;;;4.55;37.38;101640.34;5071127;28;20037;-66
2022/02/28 09:21:42;;;;;;;4.22;2.10;;;;;;;4.49;38.08;101654.66;5049584;28;20127;-66
2022/02/28 09:24:08;;;;;;;8.15;2.78;;;;;;;4.65;37.90;101655.13;5064397;28;20032;-69
2022/02/28 09:26:36;;;;;;;4.50;2.50;;;;;;;4.74;38.21;101665.47;5067771;28;20431;-67
2022/02/28 09:29:02;;;;;;;3.58;2.20;;;;;;;4.72;37.70;101647.88;5044128;28;20025;-65
2022/02/28 09:31:27;;;;;;;8.27;2.50;;;;;;;4.81;37.52;101660.00;5068966;28;20135;-64
2022/02/28 09:33:53;;;;;;;5.38;2.47;;;;;;;4.63;37.21;101629.53;5070571;28;20025;-67
2022/02/28 09:36:18;;;;;;;4.57;2.15;;;;;;;4.57;37.71;101639.41;5049463;28;20029;-65
2022/02/28 09:38:44;;;;;;;4.25;1.58;;;;;;;4.57;37.19;101647.34;5053219;28;20530;-68
2022/02/28 09:41:10;;;;;;;3.22;1.73;;;;;;;4.48;37.76;101647.59;5052928;28;20032;-66
2022/02/28 09:43:36;;;;;;;2.50;1.45;;;;;;;4.53;37.14;101658.97;5071048;28;20031;-65
2022/02/28 09:46:03;;;;;;;6.88;1.73;;;;;;;4.33;37.10;101613.50;5048987;28;20024;-66
2022/02/28 09:48:31;;;;;;;4.75;1.70;;;;;;;4.45;37.05;101661.81;5061330;28;20032;-66
2022/02/28 09:50:57;;;;;;;3.47;1.50;;;;;;;4.29;36.92;101641.88;5070373;28;20029;-65
2022/02/28 09:53:22;;;;;;;4.40;1.60;;;;;;;4.04;36.50;101610.69;5051940;28;20036;-66
2022/02/28 09:55:48;;;;;;;2.72;1.60;;;;;;;4.19;37.66;101637.72;5068638;28;20029;-64
2022/02/28 09:58:13;;;;;;;3.20;1.77;;;;;;;4.00;37.63;101595.75;5067729;28;20416;-69
2022/02/28 10:00:46;;;;;;;2.53;1.65;;;;;;;4.11;37.48;101644.09;5068024;28;20493;-65
2022/02/28 10:03:12;;;;;;;4.07;1.33;;;;;;;3.99;36.94;101639.06;5069586;28;20043;-67
2022/02/28 10:05:38;;;;;;;2.35;1.40;;;;;;;3.94;37.30;101633.03;5070166;28;20119;-62
2022/02/28 10:08:07;;;;;;;2.33;1.25;;;;;;;3.95;36.61;101637.41;5070040;28;20393;-67
2022/02/28 10:10:37;;;;;;;2.22;1.30;;;;;;;4.00;36.72;101638.16;5049188;28;20059;-65
2022/02/28 10:13:03;;;;;;;1.88;1.20;;;;;;;3.96;36.39;101633.84;5066069;28;20123;-65
2022/02/28 10:15:28;;;;;;;3.15;1.25;;;;;;;3.96;36.07;101628.56;5069337;28;20090;-67
2022/02/28 10:18:02;;;;;;;5.05;1.10;;;;;;;3.95;36.03;101621.50;5051232;28;20459;-65
2022/02/28 10:20:29;;;;;;;2.50;1.20;;;;;;;3.92;36.77;101621.59;5070102;28;20033;-66
2022/02/28 10:22:58;;;;;;;5.70;1.63;;;;;;;3.96;37.14;101624.09;5069157;28;20557;-64
2022/02/28 10:25:36;;;;;;;2.60;1.77;;;;;;;3.84;36.86;101604.06;5069333;28;20041;-66
2022/02/28 10:28:16;;;;;;;5.25;2.10;;;;;;;3.96;37.68;101624.09;5069837;28;20024;-64
2022/02/28 10:30:50;;;;;;;5.00;2.83;;;;;;;3.80;38.22;101591.81;5068680;28;20044;-62
2022/02/28 10:33:15;;;;;;;9.10;2.92;;;;;;;3.90;38.87;101615.47;5069664;28;20083;-63
2022/02/28 10:36:10;;;;;;;7.07;2.83;;;;;;;3.95;38.83;101618.88;5070058;28;20474;-65
2022/02/28 10:38:36;;;;;;;4.65;2.10;;;;;;;3.73;38.19;101571.69;5069207;28;20035;-59
2022/02/28 10:41:04;;;;;;;5.68;2.13;;;;;;;3.92;38.75;101617.13;5069697;28;20036;-64
2022/02/28 10:43:34;;;;;;;5.68;2.83;;;;;;;3.87;38.94;101611.97;5069880;28;20108;-66
2022/02/28 10:46:20;;;;;;;8.68;3.33;;;;;;;3.85;38.57;101616.41;5070803;28;20397;-64
2022/02/28 10:49:13;;;;;;;4.47;1.60;;;;;;;3.93;38.47;101618.88;5070698;28;20450;-63
2022/02/28 10:51:48;;;;;;;8.63;2.83;;;;;;;3.86;39.02;101604.03;5055150;28;20029;-64
2022/02/28 10:54:20;;;;;;;9.30;2.78;;;;;;;3.83;39.08;101612.06;5070161;28;20044;-66
2022/02/28 10:57:06;;;;;;;4.68;2.38;;;;;;;3.71;39.34;101610.59;5048990;28;20116;-65
2022/02/28 10:59:39;;;;;;;9.25;3.30;;;;;;;3.64;39.45;101601.91;5053555;28;20127;-65
2022/02/28 11:02:05;;;;;;;4.53;2.40;;;;;;;3.64;39.59;101606.34;5070143;28;20032;-63
2022/02/28 11:04:36;;;;;;;3.28;2.17;;;;;;;3.63;39.50;101601.97;5069640;28;20032;-65
2022/02/28 11:07:03;;;;;;;5.70;3.30;;;;;;;3.58;39.83;101610.00;5052389;28;20087;-63
2022/02/28 11:09:37;;;;;;;9.18;3.50;;;;;;;3.52;39.89;101599.53;5070291;28;20029;-63
2022/02/28 11:12:24;;;;;;;6.20;2.83;;;;;;;3.61;39.43;101590.50;5069814;28;20039;-63
2022/02/28 11:14:52;;;;;;;7.53;2.35;;;;;;;3.35;40.06;101562.81;5048068;28;20199;-64
2022/02/28 11:17:20;;;;;;;5.47;2.97;;;;;;;3.57;40.07;101597.66;5067521;28;20041;-63
2022/02/28 11:19:47;;;;;;;9.73;2.40;;;;;;;3.59;40.49;101596.69;5069848;28;20036;-64
2022/02/28 11:22:13;;;;;;;7.05;3.08;;;;;;;3.38;39.96;101546.91;5069373;28;20052;-65
2022/02/28 11:24:39;;;;;;;7.03;2.80;;;;;;;3.70;40.04;101592.94;5069121;28;20041;-65